createdAt,value
2022-07-27T00:00:08.904Z,0.00
2022-07-27T00:01:08.870Z,0.00
2022-07-27T00:02:09.025Z,0.00
2022-07-27T00:03:08.751Z,0.00
2022-07-27T00:04:08.815Z,0.00
2022-07-27T00:05:08.742Z,0.00
2022-07-27T00:06:08.814Z,0.00
2022-07-27T00:07:08.711Z,0.00
2022-07-27T00:08:08.694Z,0.00
2022-07-27T00:09:09.168Z,0.00
2022-07-27T00:10:08.703Z,0.00
2022-07-27T00:11:08.671Z,0.00
2022-07-27T00:12:08.664Z,0.00
2022-07-27T00:13:08.655Z,0.00
2022-07-27T00:14:08.651Z,0.00
2022-07-27T00:15:08.716Z,0.00
2022-07-27T00:16:08.656Z,0.00
2022-07-27T00:17:08.619Z,0.00
2022-07-27T00:18:08.635Z,0.00
2022-07-27T00:19:09.617Z,0.00
2022-07-27T00:20:08.579Z,0.00
2022-07-27T00:21:08.575Z,0.00
2022-07-27T00:22:08.615Z,0.00
2022-07-27T00:23:08.538Z,0.00
2022-07-27T00:24:08.671Z,0.00
2022-07-27T00:25:08.620Z,0.00
2022-07-27T00:26:08.548Z,0.00
2022-07-27T00:27:08.507Z,0.00
2022-07-27T00:28:08.568Z,0.00
2022-07-27T00:29:08.923Z,0.00
2022-07-27T00:30:08.501Z,0.00
2022-07-27T00:31:08.520Z,0.00
2022-07-27T00:32:12.586Z,0.00
2022-07-27T00:33:08.438Z,0.00
2022-07-27T00:34:08.490Z,0.00
2022-07-27T00:35:08.497Z,0.00
2022-07-27T00:36:08.429Z,0.00
2022-07-27T00:37:08.392Z,0.00
2022-07-27T00:38:08.430Z,0.00
2022-07-27T00:39:08.676Z,0.00
2022-07-27T00:40:08.450Z,0.00
2022-07-27T00:41:08.363Z,0.00
2022-07-27T00:42:08.353Z,0.00
2022-07-27T00:43:08.414Z,0.00
2022-07-27T00:44:08.372Z,0.00
2022-07-27T00:45:08.317Z,0.00
2022-07-27T00:46:08.312Z,0.00
2022-07-27T00:47:08.327Z,0.00
2022-07-27T00:48:08.343Z,0.00
2022-07-27T00:49:08.821Z,0.00
2022-07-27T00:50:08.421Z,0.00
2022-07-27T00:51:08.338Z,0.00
2022-07-27T00:52:08.254Z,0.00
2022-07-27T00:53:08.234Z,0.00
2022-07-27T00:54:10.056Z,0.00
2022-07-27T00:55:08.297Z,0.00
2022-07-27T00:56:08.236Z,0.00
2022-07-27T00:57:08.278Z,0.00
2022-07-27T00:58:08.208Z,0.00
2022-07-27T00:59:08.442Z,0.00
2022-07-27T01:00:08.148Z,0.00
2022-07-27T01:01:08.254Z,0.00
2022-07-27T01:02:11.285Z,0.00
2022-07-27T01:03:09.046Z,0.00
2022-07-27T01:04:08.308Z,0.00
2022-07-27T01:05:08.234Z,0.00
2022-07-27T01:06:08.152Z,0.00
2022-07-27T01:07:08.101Z,0.00
2022-07-27T01:08:08.108Z,0.00
2022-07-27T01:09:08.380Z,0.00
2022-07-27T01:10:08.151Z,0.00
2022-07-27T01:11:08.031Z,0.00
2022-07-27T01:12:08.525Z,0.00
2022-07-27T01:13:12.465Z,0.00
2022-07-27T01:14:08.997Z,0.00
2022-07-27T01:15:08.049Z,0.00
2022-07-27T01:16:08.119Z,0.00
2022-07-27T01:17:08.011Z,0.00
2022-07-27T01:18:08.052Z,0.00
2022-07-27T01:19:07.951Z,0.00
2022-07-27T01:20:07.993Z,0.00
2022-07-27T01:21:07.962Z,0.00
2022-07-27T01:22:07.924Z,0.00
2022-07-27T01:23:08.002Z,0.00
2022-07-27T01:24:08.084Z,0.00
2022-07-27T01:25:07.968Z,0.00
2022-07-27T01:26:07.883Z,0.00
2022-07-27T01:27:07.983Z,0.00
2022-07-27T01:28:07.854Z,0.00
2022-07-27T01:29:08.126Z,0.00
2022-07-27T01:30:07.930Z,0.00
2022-07-27T01:31:07.843Z,0.00
2022-07-27T01:32:07.864Z,0.00
2022-07-27T01:33:07.785Z,0.00
2022-07-27T01:34:07.887Z,0.00
2022-07-27T01:35:07.831Z,0.00
2022-07-27T01:36:07.750Z,0.00
2022-07-27T01:37:07.790Z,0.00
2022-07-27T01:38:07.872Z,0.00
2022-07-27T01:39:09.076Z,0.00
2022-07-27T01:40:07.889Z,0.00
2022-07-27T01:41:07.755Z,0.00
2022-07-27T01:42:07.795Z,0.00
2022-07-27T01:43:07.707Z,0.00
2022-07-27T01:44:07.690Z,0.00
2022-07-27T01:45:07.806Z,0.00
2022-07-27T01:46:07.752Z,0.00
2022-07-27T01:47:14.306Z,0.00
2022-07-27T01:48:08.629Z,0.00
2022-07-27T01:49:07.798Z,0.00
2022-07-27T01:50:07.678Z,0.00
2022-07-27T01:51:07.640Z,0.00
2022-07-27T01:52:07.573Z,0.00
2022-07-27T01:53:09.257Z,0.00
2022-07-27T01:54:07.556Z,0.00
2022-07-27T01:55:07.615Z,0.00
2022-07-27T01:56:10.323Z,0.00
2022-07-27T01:57:07.576Z,0.00
2022-07-27T01:58:07.533Z,0.00
2022-07-27T01:59:07.642Z,0.00
2022-07-27T02:00:08.543Z,0.00
2022-07-27T02:01:07.559Z,0.00
2022-07-27T02:02:07.610Z,0.00
2022-07-27T02:03:07.526Z,0.00
2022-07-27T02:04:07.829Z,0.00
2022-07-27T02:05:07.606Z,0.00
2022-07-27T02:06:07.472Z,0.00
2022-07-27T02:07:07.513Z,0.00
2022-07-27T02:08:07.508Z,0.00
2022-07-27T02:09:07.385Z,0.00
2022-07-27T02:10:07.414Z,0.00
2022-07-27T02:11:07.439Z,0.00
2022-07-27T02:12:07.366Z,0.00
2022-07-27T02:13:21.959Z,0.00
2022-07-27T02:14:08.336Z,0.00
2022-07-27T02:15:07.453Z,0.00
2022-07-27T02:16:08.723Z,0.00
2022-07-27T02:17:08.306Z,0.00
2022-07-27T02:18:33.643Z,0.00
2022-07-27T02:19:08.888Z,0.00
2022-07-27T02:20:07.306Z,0.00
2022-07-27T02:21:07.339Z,0.00
2022-07-27T02:22:08.080Z,0.00
2022-07-27T02:23:07.295Z,0.00
2022-07-27T02:24:07.259Z,0.00
2022-07-27T02:25:07.262Z,0.00
2022-07-27T02:26:07.230Z,0.00
2022-07-27T02:27:07.188Z,0.00
2022-07-27T02:28:07.304Z,0.00
2022-07-27T02:29:07.237Z,0.00
2022-07-27T02:30:07.291Z,0.00
2022-07-27T02:31:07.218Z,0.00
2022-07-27T02:32:07.264Z,0.00
2022-07-27T02:33:07.280Z,0.00
2022-07-27T02:34:07.150Z,0.00
2022-07-27T02:35:18.906Z,0.00
2022-07-27T02:36:08.154Z,0.00
2022-07-27T02:37:07.243Z,0.00
2022-07-27T02:38:07.116Z,0.00
2022-07-27T02:39:07.072Z,0.00
2022-07-27T02:40:07.198Z,0.00
2022-07-27T02:41:07.167Z,0.00
2022-07-27T02:42:07.115Z,0.00
2022-07-27T02:43:07.133Z,0.00
2022-07-27T02:44:07.081Z,0.00
2022-07-27T02:45:07.095Z,0.00
2022-07-27T02:46:07.094Z,0.00
2022-07-27T02:47:07.059Z,0.00
2022-07-27T02:48:08.334Z,0.00
2022-07-27T02:49:07.133Z,0.00
2022-07-27T02:50:07.031Z,0.00
2022-07-27T02:51:07.038Z,0.00
2022-07-27T02:52:06.975Z,0.00
2022-07-27T02:53:06.949Z,0.00
2022-07-27T02:54:07.124Z,0.00
2022-07-27T02:55:07.012Z,0.00
2022-07-27T02:56:06.981Z,0.00
2022-07-27T02:57:06.973Z,0.00
2022-07-27T02:58:06.922Z,0.00
2022-07-27T02:59:06.939Z,0.00
2022-07-27T03:00:06.942Z,0.00
2022-07-27T03:01:07.142Z,0.00
2022-07-27T03:02:06.830Z,0.00
2022-07-27T03:03:07.009Z,0.00
2022-07-27T03:04:07.240Z,0.00
2022-07-27T03:05:06.824Z,0.00
2022-07-27T03:06:06.855Z,0.00
2022-07-27T03:07:06.860Z,0.00
2022-07-27T03:08:06.891Z,0.00
2022-07-27T03:09:06.742Z,0.00
2022-07-27T03:10:06.780Z,0.00
2022-07-27T03:11:06.820Z,4.00
2022-07-27T03:12:06.790Z,4.00
2022-07-27T03:13:06.828Z,4.00
2022-07-27T03:14:06.713Z,4.00
2022-07-27T03:15:06.741Z,0.00
2022-07-27T03:16:06.901Z,4.00
2022-07-27T03:17:06.654Z,4.00
2022-07-27T03:18:06.754Z,8.00
2022-07-27T03:19:06.671Z,4.00
2022-07-27T03:20:08.069Z,8.00
2022-07-27T03:21:06.683Z,8.00
2022-07-27T03:22:06.684Z,8.00
2022-07-27T03:23:06.646Z,12.00
2022-07-27T03:24:06.633Z,12.00
2022-07-27T03:25:06.709Z,12.00
2022-07-27T03:26:06.672Z,16.00
2022-07-27T03:27:06.625Z,16.00
2022-07-27T03:28:06.653Z,24.00
2022-07-27T03:29:06.596Z,28.00
2022-07-27T03:30:06.537Z,28.00
2022-07-27T03:31:06.775Z,32.00
2022-07-27T03:32:06.546Z,36.00
2022-07-27T03:33:06.562Z,44.00
2022-07-27T03:34:06.563Z,48.00
2022-07-27T03:35:06.520Z,56.00
2022-07-27T03:36:06.579Z,64.00
2022-07-27T03:37:06.487Z,76.00
2022-07-27T03:38:06.507Z,84.00
2022-07-27T03:39:06.491Z,96.00
2022-07-27T03:40:06.455Z,112.00
2022-07-27T03:41:06.514Z,124.00
2022-07-27T03:42:06.481Z,136.00
2022-07-27T03:43:06.426Z,152.00
2022-07-27T03:44:06.446Z,164.00
2022-07-27T03:45:06.389Z,184.00
2022-07-27T03:46:06.432Z,204.00
2022-07-27T03:47:06.556Z,220.00
2022-07-27T03:48:06.450Z,240.00
2022-07-27T03:49:14.237Z,264.00
2022-07-27T03:50:07.321Z,292.00
2022-07-27T03:51:06.539Z,316.00
2022-07-27T03:52:06.385Z,344.00
2022-07-27T03:53:06.495Z,376.00
2022-07-27T03:54:06.275Z,408.00
2022-07-27T03:55:06.309Z,444.00
2022-07-27T03:56:06.276Z,476.00
2022-07-27T03:57:06.225Z,508.00
2022-07-27T03:58:06.223Z,540.00
2022-07-27T03:59:06.203Z,576.00
2022-07-27T04:00:06.193Z,612.00
2022-07-27T04:01:06.514Z,648.00
2022-07-27T04:02:06.301Z,696.00
2022-07-27T04:03:06.153Z,744.00
2022-07-27T04:04:06.234Z,792.00
2022-07-27T04:05:06.132Z,836.00
2022-07-27T04:06:06.116Z,880.00
2022-07-27T04:07:06.116Z,924.00
2022-07-27T04:08:06.096Z,976.00
2022-07-27T04:09:12.364Z,1032.00
2022-07-27T04:10:07.081Z,1080.00
2022-07-27T04:11:06.215Z,1128.00
2022-07-27T04:12:06.139Z,1176.00
2022-07-27T04:13:06.145Z,1228.00
2022-07-27T04:14:06.048Z,1292.00
2022-07-27T04:15:06.084Z,1364.00
2022-07-27T04:16:06.182Z,1432.00
2022-07-27T04:17:06.061Z,1512.00
2022-07-27T04:18:06.097Z,1584.00
2022-07-27T04:19:05.979Z,1660.00
2022-07-27T04:20:06.172Z,1740.00
2022-07-27T04:21:07.108Z,1812.00
2022-07-27T04:22:06.137Z,1896.00
2022-07-27T04:23:06.014Z,1984.00
2022-07-27T04:24:06.198Z,2080.00
2022-07-27T04:25:05.919Z,2168.00
2022-07-27T04:26:05.899Z,2248.00
2022-07-27T04:27:05.966Z,2320.00
2022-07-27T04:28:05.903Z,2388.00
2022-07-27T04:29:05.930Z,2456.00
2022-07-27T04:30:09.387Z,2512.00
2022-07-27T04:31:05.910Z,2560.00
2022-07-27T04:32:05.862Z,2596.00
2022-07-27T04:33:05.831Z,2616.00
2022-07-27T04:34:05.878Z,2620.00
2022-07-27T04:35:05.811Z,2596.00
2022-07-27T04:36:05.792Z,2608.00
2022-07-27T04:37:05.792Z,2640.00
2022-07-27T04:38:05.773Z,2688.00
2022-07-27T04:39:05.772Z,2748.00
2022-07-27T04:40:06.119Z,2812.00
2022-07-27T04:41:05.813Z,2852.00
2022-07-27T04:42:05.808Z,2904.00
2022-07-27T04:43:05.776Z,2960.00
2022-07-27T04:44:05.818Z,3024.00
2022-07-27T04:45:05.703Z,3100.00
2022-07-27T04:46:05.800Z,3172.00
2022-07-27T04:47:05.694Z,3240.00
2022-07-27T04:48:05.705Z,3308.00
2022-07-27T04:49:05.686Z,3384.00
2022-07-27T04:50:05.678Z,3484.00
2022-07-27T04:51:05.724Z,3560.00
2022-07-27T04:52:05.637Z,3624.00
2022-07-27T04:53:05.738Z,3652.00
2022-07-27T04:54:05.610Z,3744.00
2022-07-27T04:55:05.587Z,3828.00
2022-07-27T04:56:05.584Z,3888.00
2022-07-27T04:57:05.721Z,3944.00
2022-07-27T04:58:05.560Z,4016.00
2022-07-27T04:59:05.549Z,4084.00
2022-07-27T05:00:05.539Z,4076.00
2022-07-27T05:01:05.553Z,4068.00
2022-07-27T05:02:05.553Z,4084.00
2022-07-27T05:03:05.499Z,4100.00
2022-07-27T05:04:05.588Z,4124.00
2022-07-27T05:05:05.480Z,4144.00
2022-07-27T05:06:05.469Z,4152.00
2022-07-27T05:07:05.492Z,4176.00
2022-07-27T05:08:05.451Z,4204.00
2022-07-27T05:09:05.441Z,4236.00
2022-07-27T05:10:05.430Z,4276.00
2022-07-27T05:11:05.419Z,4308.00
2022-07-27T05:12:05.430Z,4344.00
2022-07-27T05:13:07.367Z,4376.00
2022-07-27T05:14:05.392Z,4408.00
2022-07-27T05:15:05.381Z,4444.00
2022-07-27T05:16:05.423Z,4476.00
2022-07-27T05:17:05.352Z,4504.00
2022-07-27T05:18:05.366Z,4536.00
2022-07-27T05:19:05.342Z,4572.00
2022-07-27T05:20:05.315Z,4604.00
2022-07-27T05:21:05.331Z,4636.00
2022-07-27T05:22:05.293Z,4656.00
2022-07-27T05:23:05.335Z,4676.00
2022-07-27T05:24:05.293Z,4700.00
2022-07-27T05:25:05.263Z,4728.00
2022-07-27T05:26:05.298Z,4752.00
2022-07-27T05:27:05.233Z,4776.00
2022-07-27T05:28:05.235Z,4804.00
2022-07-27T05:29:05.227Z,4820.00
2022-07-27T05:30:05.232Z,4840.00
2022-07-27T05:31:05.198Z,4860.00
2022-07-27T05:32:05.288Z,4896.00
2022-07-27T05:33:05.189Z,4916.00
2022-07-27T05:34:05.190Z,4940.00
2022-07-27T05:35:05.156Z,4984.00
2022-07-27T05:36:07.739Z,5360.00
2022-07-27T05:37:05.129Z,5540.00
2022-07-27T05:38:05.147Z,5200.00
2022-07-27T05:39:06.447Z,5108.00
2022-07-27T05:40:05.121Z,5160.00
2022-07-27T05:41:05.088Z,5304.00
2022-07-27T05:42:05.080Z,5776.00
2022-07-27T05:43:05.078Z,5912.00
2022-07-27T05:44:05.196Z,5532.00
2022-07-27T05:45:05.108Z,5620.00
2022-07-27T05:46:05.132Z,7124.00
2022-07-27T05:47:06.150Z,8576.00
2022-07-27T05:48:05.034Z,8068.00
2022-07-27T05:49:05.091Z,7828.00
2022-07-27T05:50:05.003Z,10088.00
2022-07-27T05:51:05.022Z,11672.00
2022-07-27T05:52:04.971Z,11308.00
2022-07-27T05:53:04.962Z,11988.00
2022-07-27T05:54:04.953Z,12592.00
2022-07-27T05:55:04.938Z,12888.00
2022-07-27T05:56:04.932Z,13348.00
2022-07-27T05:57:04.921Z,14428.00
2022-07-27T05:58:04.950Z,15532.00
2022-07-27T05:59:07.320Z,14928.00
2022-07-27T06:00:04.891Z,14796.00
2022-07-27T06:01:04.929Z,16416.00
2022-07-27T06:02:04.863Z,18976.00
2022-07-27T06:03:04.928Z,22336.00
2022-07-27T06:04:04.976Z,27104.00
2022-07-27T06:05:04.825Z,34560.00
2022-07-27T06:06:04.838Z,29760.00
2022-07-27T06:07:04.805Z,21824.00
2022-07-27T06:08:04.825Z,21280.00
2022-07-27T06:09:04.786Z,22016.00
2022-07-27T06:10:05.297Z,21280.00
2022-07-27T06:11:04.767Z,21536.00
2022-07-27T06:12:04.777Z,21184.00
2022-07-27T06:13:04.739Z,22176.00
2022-07-27T06:14:04.748Z,23296.00
2022-07-27T06:15:04.718Z,23200.00
2022-07-27T06:16:04.949Z,24256.00
2022-07-27T06:17:04.702Z,24672.00
2022-07-27T06:18:04.812Z,24128.00
2022-07-27T06:19:04.681Z,24800.00
2022-07-27T06:20:04.672Z,24416.00
2022-07-27T06:21:04.679Z,25760.00
2022-07-27T06:22:04.651Z,27360.00
2022-07-27T06:23:07.949Z,28480.00
2022-07-27T06:24:04.641Z,29824.00
2022-07-27T06:25:04.604Z,29440.00
2022-07-27T06:26:04.623Z,29504.00
2022-07-27T06:27:04.593Z,29120.00
2022-07-27T06:28:04.701Z,30240.00
2022-07-27T06:29:10.485Z,31552.00
2022-07-27T06:30:05.586Z,33056.00
2022-07-27T06:31:04.573Z,33504.00
2022-07-27T06:32:04.674Z,32288.00
2022-07-27T06:33:04.862Z,32384.00
2022-07-27T06:34:08.216Z,33280.00
2022-07-27T06:35:05.504Z,35808.00
2022-07-27T06:36:04.534Z,36576.00
2022-07-27T06:37:04.478Z,35008.00
2022-07-27T06:38:04.477Z,36192.00
2022-07-27T06:39:04.477Z,36032.00
2022-07-27T06:40:04.457Z,36512.00
2022-07-27T06:41:04.448Z,37504.00
2022-07-27T06:42:04.471Z,38048.00
2022-07-27T06:43:04.438Z,39296.00
2022-07-27T06:44:04.473Z,41728.00
2022-07-27T06:45:04.412Z,41536.00
2022-07-27T06:46:04.484Z,41312.00
2022-07-27T06:47:04.421Z,42656.00
2022-07-27T06:48:04.433Z,43168.00
2022-07-27T06:49:04.413Z,44288.00
2022-07-27T06:50:04.378Z,46240.00
2022-07-27T06:51:04.389Z,45920.00
2022-07-27T06:52:04.357Z,45152.00
2022-07-27T06:53:04.329Z,45024.00
2022-07-27T06:54:04.348Z,47712.00
2022-07-27T06:55:04.340Z,48128.00
2022-07-27T06:56:04.316Z,47136.00
2022-07-27T06:57:04.274Z,47872.00
2022-07-27T06:58:04.283Z,49472.00
2022-07-27T06:59:04.265Z,49376.00
2022-07-27T07:00:04.240Z,52384.00
2022-07-27T07:01:04.307Z,53792.00
2022-07-27T07:02:04.236Z,51808.00
2022-07-27T07:03:04.219Z,43936.00
2022-07-27T07:04:04.260Z,54752.00
2022-07-27T07:05:04.204Z,52384.00
2022-07-27T07:06:04.276Z,55680.00
2022-07-27T07:07:07.291Z,55904.00
2022-07-27T07:08:04.216Z,55424.00
2022-07-27T07:09:04.169Z,57856.00
2022-07-27T07:10:04.130Z,59136.00
2022-07-27T07:11:04.122Z,60992.00
2022-07-27T07:12:04.130Z,62112.00
2022-07-27T07:13:04.113Z,63104.00
2022-07-27T07:14:04.290Z,62752.00
2022-07-27T07:15:04.084Z,62240.00
2022-07-27T07:16:04.163Z,62432.00
2022-07-27T07:17:04.063Z,60416.00
2022-07-27T07:18:04.154Z,59680.00
2022-07-27T07:19:04.053Z,59264.00
2022-07-27T07:20:04.063Z,60704.00
2022-07-27T07:21:04.016Z,61216.00
2022-07-27T07:22:04.072Z,63712.00
2022-07-27T07:23:04.001Z,59456.00
2022-07-27T07:24:04.016Z,59520.00
2022-07-27T07:25:03.979Z,60352.00
2022-07-27T07:26:03.957Z,61952.00
2022-07-27T07:27:03.968Z,65024.00
2022-07-27T07:28:03.996Z,65600.00
2022-07-27T07:29:03.948Z,65856.00
2022-07-27T07:30:03.961Z,66560.00
2022-07-27T07:31:03.995Z,66656.00
2022-07-27T07:32:03.918Z,65600.00
2022-07-27T07:33:03.891Z,64832.00
2022-07-27T07:34:03.882Z,65984.00
2022-07-27T07:35:03.879Z,70560.00
2022-07-27T07:36:14.191Z,70848.00
2022-07-27T07:37:04.861Z,70912.00
2022-07-27T07:38:03.863Z,72064.00
2022-07-27T07:39:03.845Z,72576.00
2022-07-27T07:40:25.339Z,70624.00
2022-07-27T07:41:04.806Z,72736.00
2022-07-27T07:42:03.825Z,75328.00
2022-07-27T07:43:03.783Z,73984.00
2022-07-27T07:44:03.845Z,76992.00
2022-07-27T07:45:03.769Z,79392.00
2022-07-27T07:46:03.872Z,79072.00
2022-07-27T07:47:03.879Z,76320.00
2022-07-27T07:48:03.728Z,72640.00
2022-07-27T07:49:03.782Z,71392.00
2022-07-27T07:50:03.706Z,74368.00
2022-07-27T07:51:03.701Z,75968.00
2022-07-27T07:52:03.754Z,74912.00
2022-07-27T07:53:03.681Z,80448.00
2022-07-27T07:54:03.724Z,70944.00
2022-07-27T07:55:03.661Z,79808.00
2022-07-27T07:56:03.653Z,80416.00
2022-07-27T07:57:03.633Z,80736.00
2022-07-27T07:58:03.723Z,81632.00
2022-07-27T07:59:03.645Z,83648.00
2022-07-27T08:00:03.657Z,83168.00
2022-07-27T08:01:03.593Z,81504.00
2022-07-27T08:02:03.603Z,79520.00
2022-07-27T08:03:03.725Z,82016.00
2022-07-27T08:04:03.595Z,85856.00
2022-07-27T08:05:03.557Z,86976.00
2022-07-27T08:06:03.548Z,86848.00
2022-07-27T08:07:03.537Z,89280.00
2022-07-27T08:08:03.572Z,94336.00
2022-07-27T08:09:03.583Z,91488.00
2022-07-27T08:10:03.537Z,93664.00
2022-07-27T08:11:03.501Z,92096.00
2022-07-27T08:12:03.501Z,93184.00
2022-07-27T08:13:03.478Z,89568.00
2022-07-27T08:14:03.482Z,89504.00
2022-07-27T08:15:03.471Z,91296.00
2022-07-27T08:16:03.533Z,89248.00
2022-07-27T08:17:03.442Z,93920.00
2022-07-27T08:18:03.429Z,93568.00
2022-07-27T08:19:03.463Z,95808.00
2022-07-27T08:20:03.449Z,97152.00
2022-07-27T08:21:03.404Z,100000.00
2022-07-27T08:22:03.376Z,99168.00
2022-07-27T08:23:03.398Z,24160.00
2022-07-27T08:24:03.367Z,20448.00
2022-07-27T08:25:03.355Z,93760.00
2022-07-27T08:26:07.715Z,27584.00
2022-07-27T08:27:03.346Z,50400.00
2022-07-27T08:28:03.386Z,102048.00
2022-07-27T08:29:13.370Z,103808.00
2022-07-27T08:30:04.329Z,101344.00
2022-07-27T08:31:15.275Z,100160.00
2022-07-27T08:32:05.879Z,102784.00
2022-07-27T08:33:03.271Z,101632.00
2022-07-27T08:34:03.271Z,103808.00
2022-07-27T08:35:03.261Z,103296.00
2022-07-27T08:36:03.264Z,95072.00
2022-07-27T08:37:03.224Z,35264.00
2022-07-27T08:38:03.281Z,106080.00
2022-07-27T08:39:03.206Z,104928.00
2022-07-27T08:40:38.848Z,84160.00
2022-07-27T08:41:04.194Z,114304.00
2022-07-27T08:42:03.213Z,113568.00
2022-07-27T08:43:03.176Z,20512.00
2022-07-27T08:44:03.175Z,20640.00
2022-07-27T08:45:03.169Z,25280.00
2022-07-27T08:46:03.231Z,46976.00
2022-07-27T08:47:03.223Z,75392.00
2022-07-27T08:48:03.190Z,119488.00
2022-07-27T08:49:03.167Z,119776.00
2022-07-27T08:50:03.111Z,116960.00
2022-07-27T08:51:03.092Z,39264.00
2022-07-27T08:52:03.077Z,23488.00
2022-07-27T08:53:03.072Z,25408.00
2022-07-27T08:54:03.061Z,114656.00
2022-07-27T08:55:03.052Z,113760.00
2022-07-27T08:56:03.057Z,116384.00
2022-07-27T08:57:03.023Z,117920.00
2022-07-27T08:58:04.021Z,87072.00
2022-07-27T08:59:03.013Z,127136.00
2022-07-27T09:00:03.058Z,125344.00
2022-07-27T09:01:02.995Z,125312.00
2022-07-27T09:02:03.695Z,120992.00
2022-07-27T09:03:03.084Z,120992.00
2022-07-27T09:04:03.004Z,119744.00
2022-07-27T09:05:02.966Z,121696.00
2022-07-27T09:06:02.990Z,116288.00
2022-07-27T09:07:02.916Z,101856.00
2022-07-27T09:08:02.962Z,26688.00
2022-07-27T09:09:02.908Z,22432.00
2022-07-27T09:10:02.930Z,20864.00
2022-07-27T09:11:02.899Z,19744.00
2022-07-27T09:12:02.928Z,18816.00
2022-07-27T09:13:02.862Z,18304.00
2022-07-27T09:14:02.877Z,18432.00
2022-07-27T09:15:02.877Z,18592.00
2022-07-27T09:16:20.047Z,18816.00
2022-07-27T09:17:46.660Z,18976.00
2022-07-27T09:18:03.941Z,19232.00
2022-07-27T09:19:02.815Z,19776.00
2022-07-27T09:20:02.822Z,20448.00
2022-07-27T09:21:02.783Z,21632.00
2022-07-27T09:22:03.028Z,23200.00
2022-07-27T09:23:02.766Z,24096.00
2022-07-27T09:24:02.825Z,25632.00
2022-07-27T09:25:02.744Z,27296.00
2022-07-27T09:26:08.596Z,28576.00
2022-07-27T09:27:03.719Z,30080.00
2022-07-27T09:28:02.717Z,32160.00
2022-07-27T09:29:02.689Z,34528.00
2022-07-27T09:30:02.768Z,102880.00
2022-07-27T09:31:02.793Z,142176.00
2022-07-27T09:32:02.675Z,137536.00
2022-07-27T09:33:02.659Z,134496.00
2022-07-27T09:34:02.781Z,138592.00
2022-07-27T09:35:02.633Z,129568.00
2022-07-27T09:36:02.702Z,76448.00
2022-07-27T09:37:02.611Z,56704.00
2022-07-27T09:38:02.712Z,81856.00
2022-07-27T09:39:03.179Z,33344.00
2022-07-27T09:40:02.595Z,32960.00
2022-07-27T09:41:02.614Z,33952.00
2022-07-27T09:42:03.038Z,35424.00
2022-07-27T09:43:17.363Z,36608.00
2022-07-27T09:45:03.526Z,38272.00
2022-07-27T09:46:02.963Z,36544.00
2022-07-27T09:47:02.526Z,36736.00
2022-07-27T09:48:02.518Z,37312.00
2022-07-27T09:49:02.576Z,38272.00
2022-07-27T09:50:02.537Z,38848.00
2022-07-27T09:51:05.504Z,39264.00
2022-07-27T09:52:03.704Z,39264.00
2022-07-27T09:53:19.684Z,39872.00
2022-07-27T09:54:03.464Z,41312.00
2022-07-27T09:55:02.441Z,43744.00
2022-07-27T09:56:02.467Z,58496.00
2022-07-27T09:57:02.431Z,49344.00
2022-07-27T09:58:02.571Z,47200.00
2022-07-27T09:59:02.390Z,47584.00
2022-07-27T10:00:02.424Z,46304.00
2022-07-27T10:01:02.388Z,45440.00
2022-07-27T10:02:02.454Z,145216.00
2022-07-27T10:03:02.344Z,144544.00
2022-07-27T10:04:02.498Z,142976.00
2022-07-27T10:05:02.458Z,45280.00
2022-07-27T10:06:02.328Z,40864.00
2022-07-27T10:07:04.680Z,30016.00
2022-07-27T10:08:02.326Z,25856.00
2022-07-27T10:09:02.277Z,23648.00
2022-07-27T10:10:02.278Z,22528.00
2022-07-27T10:11:04.077Z,22304.00
2022-07-27T10:12:03.250Z,22624.00
2022-07-27T10:13:02.237Z,22944.00
2022-07-27T10:14:03.020Z,23040.00
2022-07-27T10:15:02.222Z,23424.00
2022-07-27T10:16:02.385Z,24384.00
2022-07-27T10:17:02.222Z,25440.00
2022-07-27T10:18:06.459Z,26816.00
2022-07-27T10:19:02.242Z,28000.00
2022-07-27T10:20:03.201Z,28608.00
2022-07-27T10:21:02.175Z,30080.00
2022-07-27T10:22:02.250Z,35392.00
2022-07-27T10:23:02.133Z,39360.00
2022-07-27T10:24:02.169Z,34976.00
2022-07-27T10:25:02.115Z,35168.00
2022-07-27T10:26:02.115Z,35648.00
2022-07-27T10:27:02.094Z,36448.00
2022-07-27T10:28:02.118Z,37216.00
2022-07-27T10:29:02.076Z,38912.00
2022-07-27T10:30:02.081Z,41344.00
2022-07-27T10:31:02.180Z,46240.00
2022-07-27T10:32:02.039Z,58784.00
2022-07-27T10:33:02.028Z,45920.00
2022-07-27T10:34:02.672Z,44480.00
2022-07-27T10:35:02.011Z,44480.00
2022-07-27T10:36:02.100Z,48960.00
2022-07-27T10:37:01.989Z,65568.00
2022-07-27T10:38:02.018Z,153664.00
2022-07-27T10:39:01.999Z,70816.00
2022-07-27T10:40:01.994Z,130880.00
2022-07-27T10:41:01.962Z,154464.00
2022-07-27T10:42:02.000Z,41792.00
2022-07-27T10:43:01.924Z,34592.00
2022-07-27T10:44:01.933Z,31840.00
2022-07-27T10:45:01.923Z,27392.00
2022-07-27T10:46:03.068Z,23968.00
2022-07-27T10:47:01.891Z,22080.00
2022-07-27T10:48:01.989Z,21024.00
2022-07-27T10:49:01.952Z,20416.00
2022-07-27T10:50:01.856Z,20448.00
2022-07-27T10:51:01.868Z,20736.00
2022-07-27T10:52:01.908Z,21632.00
2022-07-27T10:53:01.818Z,22560.00
2022-07-27T10:54:17.294Z,23808.00
2022-07-27T10:55:02.798Z,25024.00
2022-07-27T10:56:01.818Z,26016.00
2022-07-27T10:57:01.785Z,27360.00
2022-07-27T10:58:01.769Z,28864.00
2022-07-27T10:59:01.768Z,30432.00
2022-07-27T11:00:12.437Z,31648.00
2022-07-27T11:01:02.798Z,32672.00
2022-07-27T11:02:01.894Z,33632.00
2022-07-27T11:03:01.713Z,34624.00
2022-07-27T11:04:01.821Z,36032.00
2022-07-27T11:05:01.694Z,38112.00
2022-07-27T11:06:21.765Z,41760.00
2022-07-27T11:07:24.098Z,51136.00
2022-07-27T11:08:35.711Z,164256.00
2022-07-27T11:10:04.463Z,157856.00
2022-07-27T11:11:01.650Z,154080.00
2022-07-27T11:12:01.638Z,73248.00
2022-07-27T11:13:09.662Z,61184.00
2022-07-27T11:14:02.699Z,106528.00
2022-07-27T11:15:01.630Z,143424.00
2022-07-27T11:16:22.958Z,139520.00
2022-07-27T11:17:48.609Z,134016.00
2022-07-27T11:18:04.927Z,99680.00
2022-07-27T11:19:01.726Z,116384.00
2022-07-27T11:20:01.553Z,87424.00
2022-07-27T11:21:04.683Z,58400.00
2022-07-27T11:22:04.515Z,147072.00
2022-07-27T11:24:02.596Z,136864.00
2022-07-27T11:25:01.492Z,135296.00
2022-07-27T11:26:01.507Z,140064.00
2022-07-27T11:27:01.474Z,143456.00
2022-07-27T11:28:02.581Z,141824.00
2022-07-27T11:29:01.455Z,124640.00
2022-07-27T11:30:01.447Z,125632.00
2022-07-27T11:31:03.560Z,132352.00
2022-07-27T11:32:01.521Z,141664.00
2022-07-27T11:33:01.417Z,137856.00
2022-07-27T11:34:01.497Z,144672.00
2022-07-27T11:35:01.398Z,147360.00
2022-07-27T11:36:01.422Z,143776.00
2022-07-27T11:37:01.382Z,119040.00
2022-07-27T11:38:01.388Z,126016.00
2022-07-27T11:39:01.371Z,64608.00
2022-07-27T11:40:04.018Z,37632.00
2022-07-27T11:41:16.885Z,31520.00
2022-07-27T11:42:08.352Z,29440.00
2022-07-27T11:43:02.326Z,28288.00
2022-07-27T11:44:01.325Z,27616.00
2022-07-27T11:45:01.303Z,27232.00
2022-07-27T11:46:01.323Z,27136.00
2022-07-27T11:47:02.111Z,27872.00
2022-07-27T11:48:01.276Z,28800.00
2022-07-27T11:49:09.524Z,29600.00
2022-07-27T11:50:02.408Z,31104.00
2022-07-27T11:51:01.248Z,32896.00
2022-07-27T11:52:01.248Z,34976.00
2022-07-27T11:53:01.944Z,38272.00
2022-07-27T11:54:01.219Z,40288.00
2022-07-27T11:55:01.201Z,43104.00
2022-07-27T11:56:01.201Z,47936.00
2022-07-27T11:57:01.203Z,101088.00
2022-07-27T11:58:01.171Z,53024.00
2022-07-27T11:59:01.645Z,74944.00
2022-07-27T12:00:01.153Z,59232.00
2022-07-27T12:01:01.143Z,111552.00
2022-07-27T12:02:01.225Z,99456.00
2022-07-27T12:03:01.123Z,71200.00
2022-07-27T12:04:01.129Z,59488.00
2022-07-27T12:05:03.178Z,55936.00
2022-07-27T12:06:01.098Z,77504.00
2022-07-27T12:07:01.101Z,62944.00
2022-07-27T12:08:01.078Z,53056.00
2022-07-27T12:09:01.056Z,61248.00
2022-07-27T12:10:01.048Z,98880.00
2022-07-27T12:11:01.038Z,90368.00
2022-07-27T12:12:01.057Z,97344.00
2022-07-27T12:13:01.018Z,60480.00
2022-07-27T12:14:01.009Z,56704.00
2022-07-27T12:15:00.999Z,42400.00